Main page
METAR-TAF:

METAR-TAF

Airports :

Nadi, Fiji

Nadi International Airport

latitude: 17-45S, longitude: 177-27E, elevation: 13 m

Current weather observation

The report was made 45 minutes ago, at 20:00 UTC
Wind 2 kt from variable directions
Temperature 25°C
Humidity 79%
Pressure 1015 hPa
Visibility 10 km or more
Few clouds at a height of 3000 ft
Scattered clouds at a height of 12000 ft

METAR: NFFN 202000Z VRB02KT 9999 FEW030 SCT120 25/21 Q1015 NOSIG

Time: 08:45 (20:45 UTC)

Forecast

The report was made 3 hours and 45 minutes ago, at 17:00 UTC
Forecast valid from 20 at 18 UTC to 21 at 18 UTC
Wind 6 kt from the Southeast
Visibility 10 km or more
Few clouds at a height of 2800 ft
Scattered clouds at a height of 10000 ft
Becoming
from 20 at 21 UTC to 20 at 23 UTC
Wind 10 kt from the West/Northwest
Becoming
from 21 at 04 UTC to 21 at 06 UTC
Wind 7 kt from the East

TAF: NFFN 201700Z 2018/2118 14006KT 9999 FEW028 SCT100 BECMG 2021/2023 30010KT BECMG 2104/2106 09007KT

Weather observations and forecasts of more than 4000 airports (METAR and TAF reports).

The available stations are represented by yellow and red dots on the map.

Hover mouse over dot to see the name of the station.

Then click to see weather observations and forecasts.

To change the map : click on the green buttons with a black cross to zoom in, on the green button with a dash to zoom out, or on the green arrows for adjacent maps.


METAR-TAF: